首页
METAR-TAF:

METAR-TAF

机场 :

納爾奇克, 俄罗斯

纬度: 43-30-46N, 经度: 043-38-12E, 海拔: 445米

当前天气观测

该预报发布于15分钟前的12:00 UTC
风速4节,风向东南
温度 9°C
湿度 46%
气压 1020 hPa
能见度10公里或以上

METAR: URMN 271200Z 13002MPS 9999 NSC 09/M02 Q1020 R24/010070 NOSIG RMK QFE729

时间: 16:15 (12:15 UTC)

预报

该预报发布于1小时和15分钟前的11:00 UTC
预报有效从27日的 12点(UTC)到 27日的 21点(UTC)
风速6节,风向东转东北
能见度10公里或以上
多云层高于2000英尺

TAF: URMN 271100Z 2712/2721 06003MPS 9999 BKN020

超过4000个机场的气象观测和天气预报(METAR&TAF报告)。

可查询的气象台以黄色和红色小点在地图上表示。

将鼠标移到小点上方,可查看气象台名称。

然后点击查看天气观测和预报。

如需切换地图:点击带黑十字的绿色按钮放大地图;点击带横线的绿色按钮缩小地图;或者点击绿色箭头查看邻近地区的地图。


METAR-TAF: